sensor_id;sensor_type;location;lat;lon;timestamp;P1;durP1;ratioP1;P2;durP2;ratioP2
67100;SDS011;54019;61.746;16.106;2022-09-01T00:00:55;0.65;;;0.25;;
67100;SDS011;54019;61.746;16.106;2022-09-01T00:03:22;0.75;;;0.40;;
67100;SDS011;54019;61.746;16.106;2022-09-01T00:05:49;1.98;;;0.30;;
67100;SDS011;54019;61.746;16.106;2022-09-01T00:08:15;0.10;;;0.10;;
67100;SDS011;54019;61.746;16.106;2022-09-01T00:10:41;0.45;;;0.22;;
67100;SDS011;54019;61.746;16.106;2022-09-01T00:13:07;2.35;;;0.20;;
67100;SDS011;54019;61.746;16.106;2022-09-01T00:15:33;0.13;;;0.13;;
67100;SDS011;54019;61.746;16.106;2022-09-01T00:18:00;1.27;;;0.22;;
67100;SDS011;54019;61.746;16.106;2022-09-01T00:20:28;0.43;;;0.30;;
67100;SDS011;54019;61.746;16.106;2022-09-01T00:22:54;1.40;;;0.32;;
67100;SDS011;54019;61.746;16.106;2022-09-01T00:25:20;0.20;;;0.20;;
67100;SDS011;54019;61.746;16.106;2022-09-01T00:27:47;0.25;;;0.20;;
67100;SDS011;54019;61.746;16.106;2022-09-01T00:30:13;0.20;;;0.20;;
67100;SDS011;54019;61.746;16.106;2022-09-01T00:32:39;1.13;;;0.40;;
67100;SDS011;54019;61.746;16.106;2022-09-01T00:35:05;1.65;;;0.20;;
67100;SDS011;54019;61.746;16.106;2022-09-01T00:37:33;1.30;;;0.20;;
67100;SDS011;54019;61.746;16.106;2022-09-01T00:39:59;1.42;;;0.20;;
67100;SDS011;54019;61.746;16.106;2022-09-01T00:42:25;0.32;;;0.20;;
67100;SDS011;54019;61.746;16.106;2022-09-01T00:44:50;1.40;;;0.40;;
67100;SDS011;54019;61.746;16.106;2022-09-01T00:47:16;2.65;;;0.20;;
67100;SDS011;54019;61.746;16.106;2022-09-01T00:49:43;0.63;;;0.30;;
67100;SDS011;54019;61.746;16.106;2022-09-01T00:52:12;0.85;;;0.20;;
67100;SDS011;54019;61.746;16.106;2022-09-01T00:54:44;0.63;;;0.20;;
67100;SDS011;54019;61.746;16.106;2022-09-01T00:57:12;0.88;;;0.20;;
67100;SDS011;54019;61.746;16.106;2022-09-01T00:59:41;0.75;;;0.20;;
67100;SDS011;54019;61.746;16.106;2022-09-01T01:02:10;0.32;;;0.20;;
67100;SDS011;54019;61.746;16.106;2022-09-01T01:04:36;0.52;;;0.28;;
67100;SDS011;54019;61.746;16.106;2022-09-01T01:07:02;1.65;;;0.22;;
67100;SDS011;54019;61.746;16.106;2022-09-01T01:09:32;0.80;;;0.22;;
67100;SDS011;54019;61.746;16.106;2022-09-01T01:12:04;0.25;;;0.20;;
67100;SDS011;54019;61.746;16.106;2022-09-01T01:14:30;0.40;;;0.15;;
67100;SDS011;54019;61.746;16.106;2022-09-01T01:16:59;2.42;;;0.22;;
67100;SDS011;54019;61.746;16.106;2022-09-01T01:19:29;0.55;;;0.30;;
67100;SDS011;54019;61.746;16.106;2022-09-01T01:22:03;0.57;;;0.20;;
67100;SDS011;54019;61.746;16.106;2022-09-01T01:24:33;0.52;;;0.30;;
67100;SDS011;54019;61.746;16.106;2022-09-01T01:26:59;1.10;;;0.20;;
67100;SDS011;54019;61.746;16.106;2022-09-01T01:29:26;0.40;;;0.30;;
67100;SDS011;54019;61.746;16.106;2022-09-01T01:31:56;0.57;;;0.20;;
67100;SDS011;54019;61.746;16.106;2022-09-01T01:34:22;0.25;;;0.25;;
67100;SDS011;54019;61.746;16.106;2022-09-01T01:36:48;0.75;;;0.20;;
67100;SDS011;54019;61.746;16.106;2022-09-01T01:39:16;0.22;;;0.20;;
67100;SDS011;54019;61.746;16.106;2022-09-01T01:41:45;0.35;;;0.28;;
67100;SDS011;54019;61.746;16.106;2022-09-01T01:44:12;0.73;;;0.10;;
67100;SDS011;54019;61.746;16.106;2022-09-01T01:46:40;0.57;;;0.20;;
67100;SDS011;54019;61.746;16.106;2022-09-01T01:49:07;0.20;;;0.20;;
67100;SDS011;54019;61.746;16.106;2022-09-01T01:51:34;0.20;;;0.20;;
67100;SDS011;54019;61.746;16.106;2022-09-01T01:54:00;1.50;;;0.20;;
67100;SDS011;54019;61.746;16.106;2022-09-01T01:56:26;0.20;;;0.10;;
67100;SDS011;54019;61.746;16.106;2022-09-01T01:58:54;0.25;;;0.20;;
67100;SDS011;54019;61.746;16.106;2022-09-01T02:01:20;0.63;;;0.20;;
67100;SDS011;54019;61.746;16.106;2022-09-01T02:03:46;0.65;;;0.20;;
67100;SDS011;54019;61.746;16.106;2022-09-01T02:06:12;0.30;;;0.10;;
67100;SDS011;54019;61.746;16.106;2022-09-01T02:08:38;0.30;;;0.20;;
67100;SDS011;54019;61.746;16.106;2022-09-01T02:11:05;1.17;;;0.30;;
67100;SDS011;54019;61.746;16.106;2022-09-01T02:13:31;0.28;;;0.20;;
67100;SDS011;54019;61.746;16.106;2022-09-01T02:15:59;0.32;;;0.20;;
67100;SDS011;54019;61.746;16.106;2022-09-01T02:18:29;0.60;;;0.20;;
67100;SDS011;54019;61.746;16.106;2022-09-01T02:20:56;0.30;;;0.10;;
67100;SDS011;54019;61.746;16.106;2022-09-01T02:23:22;0.10;;;0.10;;
67100;SDS011;54019;61.746;16.106;2022-09-01T02:25:49;0.13;;;0.13;;
67100;SDS011;54019;61.746;16.106;2022-09-01T02:28:16;0.10;;;0.10;;
67100;SDS011;54019;61.746;16.106;2022-09-01T02:33:19;0.10;;;0.10;;
67100;SDS011;54019;61.746;16.106;2022-09-01T02:35:46;0.20;;;0.20;;
67100;SDS011;54019;61.746;16.106;2022-09-01T02:38:15;1.65;;;0.25;;
67100;SDS011;54019;61.746;16.106;2022-09-01T02:40:42;0.40;;;0.13;;
67100;SDS011;54019;61.746;16.106;2022-09-01T02:43:08;0.20;;;0.20;;
67100;SDS011;54019;61.746;16.106;2022-09-01T02:45:34;0.40;;;0.30;;
67100;SDS011;54019;61.746;16.106;2022-09-01T02:48:00;0.38;;;0.20;;
67100;SDS011;54019;61.746;16.106;2022-09-01T02:50:27;1.38;;;0.20;;
67100;SDS011;54019;61.746;16.106;2022-09-01T02:52:53;0.40;;;0.20;;
67100;SDS011;54019;61.746;16.106;2022-09-01T02:55:19;0.63;;;0.25;;
67100;SDS011;54019;61.746;16.106;2022-09-01T02:57:45;0.80;;;0.30;;
67100;SDS011;54019;61.746;16.106;2022-09-01T03:00:12;0.80;;;0.20;;
67100;SDS011;54019;61.746;16.106;2022-09-01T03:02:39;0.45;;;0.30;;
67100;SDS011;54019;61.746;16.106;2022-09-01T03:05:05;0.52;;;0.30;;
67100;SDS011;54019;61.746;16.106;2022-09-01T03:07:33;0.25;;;0.20;;
67100;SDS011;54019;61.746;16.106;2022-09-01T03:09:59;0.20;;;0.20;;
67100;SDS011;54019;61.746;16.106;2022-09-01T03:12:24;0.85;;;0.13;;
67100;SDS011;54019;61.746;16.106;2022-09-01T03:14:50;0.30;;;0.30;;
67100;SDS011;54019;61.746;16.106;2022-09-01T03:17:16;0.77;;;0.28;;
67100;SDS011;54019;61.746;16.106;2022-09-01T03:19:42;0.65;;;0.20;;
67100;SDS011;54019;61.746;16.106;2022-09-01T03:22:08;0.80;;;0.20;;
67100;SDS011;54019;61.746;16.106;2022-09-01T03:24:35;1.00;;;0.30;;
67100;SDS011;54019;61.746;16.106;2022-09-01T03:27:01;0.43;;;0.20;;
67100;SDS011;54019;61.746;16.106;2022-09-01T03:29:27;1.88;;;0.20;;
67100;SDS011;54019;61.746;16.106;2022-09-01T03:31:53;1.95;;;0.28;;
67100;SDS011;54019;61.746;16.106;2022-09-01T03:34:18;3.05;;;0.40;;
67100;SDS011;54019;61.746;16.106;2022-09-01T03:36:44;9.73;;;0.88;;
67100;SDS011;54019;61.746;16.106;2022-09-01T03:39:10;2.63;;;0.57;;
67100;SDS011;54019;61.746;16.106;2022-09-01T03:41:37;6.90;;;0.68;;
67100;SDS011;54019;61.746;16.106;2022-09-01T03:44:03;3.80;;;0.82;;
67100;SDS011;54019;61.746;16.106;2022-09-01T03:46:29;2.42;;;0.47;;
67100;SDS011;54019;61.746;16.106;2022-09-01T03:48:56;3.45;;;0.50;;
67100;SDS011;54019;61.746;16.106;2022-09-01T03:51:23;0.70;;;0.35;;
67100;SDS011;54019;61.746;16.106;2022-09-01T03:53:49;3.13;;;0.45;;
67100;SDS011;54019;61.746;16.106;2022-09-01T03:56:16;2.78;;;0.57;;
67100;SDS011;54019;61.746;16.106;2022-09-01T03:58:44;1.98;;;0.60;;
67100;SDS011;54019;61.746;16.106;2022-09-01T04:01:10;6.22;;;1.02;;
67100;SDS011;54019;61.746;16.106;2022-09-01T04:03:35;7.55;;;0.50;;
67100;SDS011;54019;61.746;16.106;2022-09-01T04:06:03;5.20;;;0.50;;
67100;SDS011;54019;61.746;16.106;2022-09-01T04:08:32;8.68;;;0.50;;
67100;SDS011;54019;61.746;16.106;2022-09-01T04:10:59;6.97;;;0.50;;
67100;SDS011;54019;61.746;16.106;2022-09-01T04:13:28;6.97;;;0.73;;
67100;SDS011;54019;61.746;16.106;2022-09-01T04:15:57;1.17;;;0.30;;
67100;SDS011;54019;61.746;16.106;2022-09-01T04:18:23;1.95;;;0.43;;
67100;SDS011;54019;61.746;16.106;2022-09-01T04:20:51;3.10;;;0.32;;
67100;SDS011;54019;61.746;16.106;2022-09-01T04:23:19;4.35;;;0.30;;
67100;SDS011;54019;61.746;16.106;2022-09-01T04:25:48;3.63;;;0.40;;
67100;SDS011;54019;61.746;16.106;2022-09-01T04:28:14;3.53;;;0.43;;
67100;SDS011;54019;61.746;16.106;2022-09-01T04:30:40;0.30;;;0.30;;
67100;SDS011;54019;61.746;16.106;2022-09-01T04:33:08;2.05;;;0.30;;
67100;SDS011;54019;61.746;16.106;2022-09-01T04:35:36;1.67;;;0.50;;
67100;SDS011;54019;61.746;16.106;2022-09-01T04:38:02;2.33;;;0.30;;
67100;SDS011;54019;61.746;16.106;2022-09-01T04:40:28;0.85;;;0.40;;
67100;SDS011;54019;61.746;16.106;2022-09-01T04:42:54;1.83;;;0.30;;
67100;SDS011;54019;61.746;16.106;2022-09-01T04:45:19;4.05;;;0.30;;
67100;SDS011;54019;61.746;16.106;2022-09-01T04:47:45;3.22;;;0.40;;
67100;SDS011;54019;61.746;16.106;2022-09-01T04:50:13;2.50;;;0.30;;
67100;SDS011;54019;61.746;16.106;2022-09-01T04:52:39;2.70;;;0.50;;
67100;SDS011;54019;61.746;16.106;2022-09-01T04:55:05;2.83;;;0.45;;
67100;SDS011;54019;61.746;16.106;2022-09-01T04:57:31;6.25;;;0.50;;
67100;SDS011;54019;61.746;16.106;2022-09-01T04:59:57;3.67;;;0.40;;
67100;SDS011;54019;61.746;16.106;2022-09-01T05:02:23;2.30;;;0.32;;
67100;SDS011;54019;61.746;16.106;2022-09-01T05:04:49;5.15;;;0.50;;
67100;SDS011;54019;61.746;16.106;2022-09-01T05:07:16;2.17;;;0.70;;
67100;SDS011;54019;61.746;16.106;2022-09-01T05:09:42;12.20;;;0.82;;
67100;SDS011;54019;61.746;16.106;2022-09-01T05:12:07;9.38;;;1.00;;
67100;SDS011;54019;61.746;16.106;2022-09-01T05:14:33;2.72;;;0.82;;
67100;SDS011;54019;61.746;16.106;2022-09-01T05:16:59;5.47;;;0.47;;
67100;SDS011;54019;61.746;16.106;2022-09-01T05:19:25;4.72;;;0.50;;
67100;SDS011;54019;61.746;16.106;2022-09-01T05:21:51;8.32;;;0.70;;
67100;SDS011;54019;61.746;16.106;2022-09-01T05:24:18;6.28;;;0.50;;
67100;SDS011;54019;61.746;16.106;2022-09-01T05:26:44;4.38;;;0.73;;
67100;SDS011;54019;61.746;16.106;2022-09-01T05:29:10;4.10;;;0.43;;
67100;SDS011;54019;61.746;16.106;2022-09-01T05:31:36;3.22;;;0.30;;
67100;SDS011;54019;61.746;16.106;2022-09-01T05:34:02;4.70;;;0.40;;
67100;SDS011;54019;61.746;16.106;2022-09-01T05:36:28;4.45;;;0.80;;
67100;SDS011;54019;61.746;16.106;2022-09-01T05:38:54;4.63;;;0.38;;
67100;SDS011;54019;61.746;16.106;2022-09-01T05:41:21;6.78;;;0.70;;
67100;SDS011;54019;61.746;16.106;2022-09-01T05:43:47;6.07;;;0.50;;
67100;SDS011;54019;61.746;16.106;2022-09-01T05:46:14;7.70;;;0.68;;
67100;SDS011;54019;61.746;16.106;2022-09-01T05:48:42;5.80;;;0.60;;
67100;SDS011;54019;61.746;16.106;2022-09-01T05:51:08;3.90;;;0.43;;
67100;SDS011;54019;61.746;16.106;2022-09-01T05:53:34;3.60;;;0.55;;
67100;SDS011;54019;61.746;16.106;2022-09-01T05:56:04;4.55;;;0.43;;
67100;SDS011;54019;61.746;16.106;2022-09-01T05:58:32;9.27;;;0.60;;
67100;SDS011;54019;61.746;16.106;2022-09-01T06:00:59;13.10;;;0.63;;
67100;SDS011;54019;61.746;16.106;2022-09-01T06:03:26;10.13;;;0.60;;
67100;SDS011;54019;61.746;16.106;2022-09-01T06:05:52;3.42;;;0.52;;
67100;SDS011;54019;61.746;16.106;2022-09-01T06:08:20;0.73;;;0.30;;
67100;SDS011;54019;61.746;16.106;2022-09-01T06:10:47;5.28;;;0.40;;
67100;SDS011;54019;61.746;16.106;2022-09-01T06:13:13;1.48;;;0.30;;
67100;SDS011;54019;61.746;16.106;2022-09-01T06:15:40;3.05;;;0.35;;
67100;SDS011;54019;61.746;16.106;2022-09-01T06:18:06;1.35;;;0.40;;
67100;SDS011;54019;61.746;16.106;2022-09-01T06:20:37;2.88;;;0.50;;
67100;SDS011;54019;61.746;16.106;2022-09-01T06:23:03;5.75;;;0.28;;
67100;SDS011;54019;61.746;16.106;2022-09-01T06:25:29;0.98;;;0.20;;
67100;SDS011;54019;61.746;16.106;2022-09-01T06:27:55;0.50;;;0.20;;
67100;SDS011;54019;61.746;16.106;2022-09-01T06:30:21;1.52;;;0.40;;
67100;SDS011;54019;61.746;16.106;2022-09-01T06:32:48;1.08;;;0.30;;
67100;SDS011;54019;61.746;16.106;2022-09-01T06:35:15;0.90;;;0.22;;
67100;SDS011;54019;61.746;16.106;2022-09-01T06:37:41;1.13;;;0.30;;
67100;SDS011;54019;61.746;16.106;2022-09-01T06:40:09;3.30;;;0.45;;
67100;SDS011;54019;61.746;16.106;2022-09-01T06:42:36;3.25;;;0.40;;
67100;SDS011;54019;61.746;16.106;2022-09-01T06:45:02;2.63;;;0.30;;
67100;SDS011;54019;61.746;16.106;2022-09-01T06:47:32;2.13;;;0.40;;
67100;SDS011;54019;61.746;16.106;2022-09-01T06:49:59;4.10;;;0.32;;
67100;SDS011;54019;61.746;16.106;2022-09-01T06:52:25;1.83;;;0.40;;
67100;SDS011;54019;61.746;16.106;2022-09-01T06:54:51;2.65;;;0.22;;
67100;SDS011;54019;61.746;16.106;2022-09-01T06:57:17;4.20;;;0.40;;
67100;SDS011;54019;61.746;16.106;2022-09-01T06:59:42;2.63;;;0.30;;
67100;SDS011;54019;61.746;16.106;2022-09-01T07:02:08;1.75;;;0.40;;
67100;SDS011;54019;61.746;16.106;2022-09-01T07:04:34;3.90;;;0.20;;
67100;SDS011;54019;61.746;16.106;2022-09-01T07:07:01;0.90;;;0.20;;
67100;SDS011;54019;61.746;16.106;2022-09-01T07:09:27;6.20;;;0.40;;
67100;SDS011;54019;61.746;16.106;2022-09-01T07:11:54;1.63;;;0.20;;
67100;SDS011;54019;61.746;16.106;2022-09-01T07:14:20;4.10;;;0.45;;
67100;SDS011;54019;61.746;16.106;2022-09-01T07:16:45;0.30;;;0.20;;
67100;SDS011;54019;61.746;16.106;2022-09-01T07:19:11;1.80;;;0.30;;
67100;SDS011;54019;61.746;16.106;2022-09-01T07:21:38;3.30;;;0.28;;
67100;SDS011;54019;61.746;16.106;2022-09-01T07:24:05;4.43;;;0.45;;
67100;SDS011;54019;61.746;16.106;2022-09-01T07:26:31;5.32;;;0.45;;
67100;SDS011;54019;61.746;16.106;2022-09-01T07:28:57;4.50;;;0.45;;
67100;SDS011;54019;61.746;16.106;2022-09-01T07:31:24;6.07;;;0.30;;
67100;SDS011;54019;61.746;16.106;2022-09-01T07:33:52;2.85;;;0.20;;
67100;SDS011;54019;61.746;16.106;2022-09-01T07:36:19;2.83;;;0.40;;
67100;SDS011;54019;61.746;16.106;2022-09-01T07:38:45;2.83;;;0.50;;
67100;SDS011;54019;61.746;16.106;2022-09-01T07:41:12;5.35;;;0.43;;
67100;SDS011;54019;61.746;16.106;2022-09-01T07:43:39;4.85;;;0.40;;
67100;SDS011;54019;61.746;16.106;2022-09-01T07:46:06;1.80;;;0.30;;
67100;SDS011;54019;61.746;16.106;2022-09-01T07:48:32;10.63;;;1.08;;
67100;SDS011;54019;61.746;16.106;2022-09-01T07:50:58;8.55;;;0.63;;
67100;SDS011;54019;61.746;16.106;2022-09-01T07:53:25;4.45;;;0.60;;
67100;SDS011;54019;61.746;16.106;2022-09-01T07:55:53;4.72;;;0.88;;
67100;SDS011;54019;61.746;16.106;2022-09-01T07:58:21;12.93;;;1.00;;
67100;SDS011;54019;61.746;16.106;2022-09-01T08:00:49;4.13;;;0.50;;
67100;SDS011;54019;61.746;16.106;2022-09-01T08:03:16;6.65;;;0.50;;
67100;SDS011;54019;61.746;16.106;2022-09-01T08:05:42;5.90;;;0.50;;
67100;SDS011;54019;61.746;16.106;2022-09-01T08:08:08;2.90;;;0.50;;
67100;SDS011;54019;61.746;16.106;2022-09-01T08:10:37;3.13;;;0.40;;
67100;SDS011;54019;61.746;16.106;2022-09-01T08:13:03;5.07;;;0.30;;
67100;SDS011;54019;61.746;16.106;2022-09-01T08:15:30;0.35;;;0.20;;
67100;SDS011;54019;61.746;16.106;2022-09-01T08:17:56;3.58;;;0.30;;
67100;SDS011;54019;61.746;16.106;2022-09-01T08:20:21;4.05;;;0.30;;
67100;SDS011;54019;61.746;16.106;2022-09-01T08:22:47;4.35;;;0.40;;
67100;SDS011;54019;61.746;16.106;2022-09-01T08:25:15;4.93;;;0.40;;
67100;SDS011;54019;61.746;16.106;2022-09-01T08:27:41;4.55;;;0.40;;
67100;SDS011;54019;61.746;16.106;2022-09-01T08:30:08;3.08;;;0.25;;
67100;SDS011;54019;61.746;16.106;2022-09-01T08:32:37;5.68;;;0.50;;
67100;SDS011;54019;61.746;16.106;2022-09-01T08:35:04;1.20;;;0.30;;
67100;SDS011;54019;61.746;16.106;2022-09-01T08:37:30;3.47;;;0.60;;
67100;SDS011;54019;61.746;16.106;2022-09-01T08:39:56;6.90;;;0.60;;
67100;SDS011;54019;61.746;16.106;2022-09-01T08:42:26;3.50;;;0.30;;
67100;SDS011;54019;61.746;16.106;2022-09-01T08:45:08;4.70;;;0.50;;
67100;SDS011;54019;61.746;16.106;2022-09-01T08:47:41;2.97;;;0.40;;
67100;SDS011;54019;61.746;16.106;2022-09-01T08:50:07;3.22;;;0.40;;
67100;SDS011;54019;61.746;16.106;2022-09-01T08:52:34;3.50;;;0.40;;
67100;SDS011;54019;61.746;16.106;2022-09-01T08:55:03;1.70;;;0.40;;
67100;SDS011;54019;61.746;16.106;2022-09-01T08:57:33;2.25;;;0.40;;
67100;SDS011;54019;61.746;16.106;2022-09-01T09:00:01;2.83;;;0.65;;
67100;SDS011;54019;61.746;16.106;2022-09-01T09:02:32;1.17;;;0.25;;
67100;SDS011;54019;61.746;16.106;2022-09-01T09:05:13;2.80;;;0.40;;
67100;SDS011;54019;61.746;16.106;2022-09-01T09:07:57;1.02;;;0.20;;
67100;SDS011;54019;61.746;16.106;2022-09-01T09:10:37;2.28;;;0.30;;
67100;SDS011;54019;61.746;16.106;2022-09-01T09:13:08;2.08;;;0.40;;
67100;SDS011;54019;61.746;16.106;2022-09-01T09:15:41;0.75;;;0.20;;
67100;SDS011;54019;61.746;16.106;2022-09-01T09:18:13;0.60;;;0.20;;
67100;SDS011;54019;61.746;16.106;2022-09-01T09:20:45;0.63;;;0.20;;
67100;SDS011;54019;61.746;16.106;2022-09-01T09:23:14;1.08;;;0.20;;
67100;SDS011;54019;61.746;16.106;2022-09-01T09:25:49;0.93;;;0.35;;
67100;SDS011;54019;61.746;16.106;2022-09-01T09:28:15;0.98;;;0.20;;
67100;SDS011;54019;61.746;16.106;2022-09-01T09:30:41;0.73;;;0.20;;
67100;SDS011;54019;61.746;16.106;2022-09-01T09:33:07;1.00;;;0.17;;
67100;SDS011;54019;61.746;16.106;2022-09-01T09:35:34;0.82;;;0.20;;
67100;SDS011;54019;61.746;16.106;2022-09-01T09:40:57;1.35;;;0.13;;
67100;SDS011;54019;61.746;16.106;2022-09-01T09:43:25;2.30;;;0.20;;
67100;SDS011;54019;61.746;16.106;2022-09-01T09:46:18;6.97;;;0.35;;
67100;SDS011;54019;61.746;16.106;2022-09-01T09:48:48;3.15;;;0.70;;
67100;SDS011;54019;61.746;16.106;2022-09-01T09:51:29;12.80;;;3.38;;
67100;SDS011;54019;61.746;16.106;2022-09-01T09:53:59;5.80;;;2.45;;
67100;SDS011;54019;61.746;16.106;2022-09-01T09:56:36;13.93;;;4.30;;
67100;SDS011;54019;61.746;16.106;2022-09-01T09:59:02;16.20;;;2.90;;
67100;SDS011;54019;61.746;16.106;2022-09-01T10:01:43;14.05;;;4.38;;
67100;SDS011;54019;61.746;16.106;2022-09-01T10:04:08;13.50;;;3.90;;
67100;SDS011;54019;61.746;16.106;2022-09-01T10:06:35;9.57;;;3.58;;
67100;SDS011;54019;61.746;16.106;2022-09-01T10:09:04;7.50;;;2.70;;
67100;SDS011;54019;61.746;16.106;2022-09-01T10:11:32;11.30;;;2.80;;
67100;SDS011;54019;61.746;16.106;2022-09-01T10:14:04;12.52;;;3.22;;
67100;SDS011;54019;61.746;16.106;2022-09-01T10:16:32;19.58;;;3.03;;
67100;SDS011;54019;61.746;16.106;2022-09-01T10:19:01;12.77;;;3.10;;
67100;SDS011;54019;61.746;16.106;2022-09-01T10:21:30;16.40;;;2.95;;
67100;SDS011;54019;61.746;16.106;2022-09-01T10:23:58;10.50;;;2.47;;
67100;SDS011;54019;61.746;16.106;2022-09-01T10:26:28;13.13;;;2.88;;
67100;SDS011;54019;61.746;16.106;2022-09-01T10:28:58;10.88;;;1.70;;
67100;SDS011;54019;61.746;16.106;2022-09-01T10:31:29;9.52;;;2.33;;
67100;SDS011;54019;61.746;16.106;2022-09-01T10:33:56;11.63;;;2.38;;
67100;SDS011;54019;61.746;16.106;2022-09-01T10:36:23;16.17;;;2.08;;
67100;SDS011;54019;61.746;16.106;2022-09-01T10:38:49;12.30;;;2.45;;
67100;SDS011;54019;61.746;16.106;2022-09-01T10:44:17;7.72;;;1.90;;
67100;SDS011;54019;61.746;16.106;2022-09-01T10:46:45;9.00;;;1.90;;
67100;SDS011;54019;61.746;16.106;2022-09-01T10:49:12;7.82;;;1.92;;
67100;SDS011;54019;61.746;16.106;2022-09-01T10:52:24;8.88;;;2.05;;
67100;SDS011;54019;61.746;16.106;2022-09-01T10:55:19;6.80;;;1.70;;
67100;SDS011;54019;61.746;16.106;2022-09-01T10:57:52;5.00;;;1.70;;
67100;SDS011;54019;61.746;16.106;2022-09-01T11:00:45;8.60;;;1.60;;
67100;SDS011;54019;61.746;16.106;2022-09-01T11:09:02;4.20;;;1.52;;
67100;SDS011;54019;61.746;16.106;2022-09-01T11:11:32;4.22;;;1.23;;
67100;SDS011;54019;61.746;16.106;2022-09-01T11:16:40;6.90;;;1.30;;
67100;SDS011;54019;61.746;16.106;2022-09-01T11:22:03;1.80;;;1.00;;
67100;SDS011;54019;61.746;16.106;2022-09-01T11:24:47;4.25;;;0.95;;
67100;SDS011;54019;61.746;16.106;2022-09-01T11:30:16;4.63;;;0.80;;
67100;SDS011;54019;61.746;16.106;2022-09-01T11:32:44;2.78;;;0.40;;
67100;SDS011;54019;61.746;16.106;2022-09-01T11:35:13;4.38;;;0.55;;
67100;SDS011;54019;61.746;16.106;2022-09-01T11:37:41;1.25;;;0.60;;
67100;SDS011;54019;61.746;16.106;2022-09-01T11:40:11;3.92;;;0.50;;
67100;SDS011;54019;61.746;16.106;2022-09-01T11:42:44;2.33;;;0.65;;
67100;SDS011;54019;61.746;16.106;2022-09-01T11:45:13;4.72;;;0.85;;
67100;SDS011;54019;61.746;16.106;2022-09-01T11:47:43;2.15;;;0.60;;
67100;SDS011;54019;61.746;16.106;2022-09-01T11:50:16;0.80;;;0.40;;
67100;SDS011;54019;61.746;16.106;2022-09-01T11:52:50;3.13;;;0.40;;
67100;SDS011;54019;61.746;16.106;2022-09-01T11:55:26;3.35;;;0.40;;
67100;SDS011;54019;61.746;16.106;2022-09-01T11:57:54;2.67;;;0.30;;
67100;SDS011;54019;61.746;16.106;2022-09-01T12:00:25;1.40;;;0.38;;
67100;SDS011;54019;61.746;16.106;2022-09-01T12:02:52;2.33;;;0.30;;
67100;SDS011;54019;61.746;16.106;2022-09-01T12:05:23;2.13;;;0.30;;
67100;SDS011;54019;61.746;16.106;2022-09-01T12:07:52;0.75;;;0.22;;
67100;SDS011;54019;61.746;16.106;2022-09-01T12:10:19;0.80;;;0.32;;
67100;SDS011;54019;61.746;16.106;2022-09-01T12:12:58;0.20;;;0.20;;
67100;SDS011;54019;61.746;16.106;2022-09-01T12:17:52;0.30;;;0.30;;
67100;SDS011;54019;61.746;16.106;2022-09-01T12:20:34;2.47;;;0.35;;
67100;SDS011;54019;61.746;16.106;2022-09-01T12:23:01;8.75;;;0.55;;
67100;SDS011;54019;61.746;16.106;2022-09-01T12:25:27;2.88;;;0.30;;
67100;SDS011;54019;61.746;16.106;2022-09-01T12:27:54;3.50;;;0.20;;
67100;SDS011;54019;61.746;16.106;2022-09-01T12:30:20;2.38;;;0.47;;
67100;SDS011;54019;61.746;16.106;2022-09-01T12:32:48;1.95;;;0.45;;
67100;SDS011;54019;61.746;16.106;2022-09-01T12:35:16;4.00;;;0.40;;
67100;SDS011;54019;61.746;16.106;2022-09-01T12:37:45;1.85;;;0.50;;
67100;SDS011;54019;61.746;16.106;2022-09-01T12:40:22;3.72;;;0.40;;
67100;SDS011;54019;61.746;16.106;2022-09-01T12:42:50;5.82;;;0.57;;
67100;SDS011;54019;61.746;16.106;2022-09-01T12:48:03;8.13;;;0.52;;
67100;SDS011;54019;61.746;16.106;2022-09-01T12:50:36;3.83;;;0.40;;
67100;SDS011;54019;61.746;16.106;2022-09-01T12:53:13;4.55;;;0.47;;
67100;SDS011;54019;61.746;16.106;2022-09-01T12:55:43;2.28;;;0.30;;
67100;SDS011;54019;61.746;16.106;2022-09-01T12:58:20;11.50;;;0.50;;
67100;SDS011;54019;61.746;16.106;2022-09-01T13:00:54;3.60;;;0.30;;
67100;SDS011;54019;61.746;16.106;2022-09-01T13:03:23;5.53;;;0.30;;
67100;SDS011;54019;61.746;16.106;2022-09-01T13:05:50;0.43;;;0.28;;
67100;SDS011;54019;61.746;16.106;2022-09-01T13:08:17;1.90;;;0.30;;
67100;SDS011;54019;61.746;16.106;2022-09-01T13:10:44;1.50;;;0.40;;
67100;SDS011;54019;61.746;16.106;2022-09-01T13:13:13;1.55;;;0.28;;
67100;SDS011;54019;61.746;16.106;2022-09-01T13:15:41;2.80;;;0.30;;
67100;SDS011;54019;61.746;16.106;2022-09-01T13:18:08;1.95;;;0.30;;
67100;SDS011;54019;61.746;16.106;2022-09-01T13:20:35;2.15;;;0.30;;
67100;SDS011;54019;61.746;16.106;2022-09-01T13:23:01;2.75;;;0.43;;
67100;SDS011;54019;61.746;16.106;2022-09-01T13:25:27;2.08;;;0.30;;
67100;SDS011;54019;61.746;16.106;2022-09-01T13:27:53;9.77;;;0.60;;
67100;SDS011;54019;61.746;16.106;2022-09-01T13:30:19;2.22;;;0.40;;
67100;SDS011;54019;61.746;16.106;2022-09-01T13:32:47;2.33;;;0.40;;
67100;SDS011;54019;61.746;16.106;2022-09-01T13:35:14;6.88;;;0.40;;
67100;SDS011;54019;61.746;16.106;2022-09-01T13:37:43;12.25;;;0.68;;
67100;SDS011;54019;61.746;16.106;2022-09-01T13:40:10;4.15;;;0.50;;
67100;SDS011;54019;61.746;16.106;2022-09-01T13:42:36;5.35;;;0.40;;
67100;SDS011;54019;61.746;16.106;2022-09-01T13:45:02;6.78;;;0.47;;
67100;SDS011;54019;61.746;16.106;2022-09-01T13:47:28;3.55;;;0.50;;
67100;SDS011;54019;61.746;16.106;2022-09-01T13:49:54;3.60;;;0.52;;
67100;SDS011;54019;61.746;16.106;2022-09-01T13:52:20;2.63;;;0.38;;
67100;SDS011;54019;61.746;16.106;2022-09-01T13:54:47;1.95;;;0.40;;
67100;SDS011;54019;61.746;16.106;2022-09-01T13:57:13;2.50;;;0.30;;
67100;SDS011;54019;61.746;16.106;2022-09-01T13:59:39;4.82;;;0.50;;
67100;SDS011;54019;61.746;16.106;2022-09-01T14:02:05;1.75;;;0.32;;
67100;SDS011;54019;61.746;16.106;2022-09-01T14:04:30;2.50;;;0.47;;
67100;SDS011;54019;61.746;16.106;2022-09-01T14:06:56;4.22;;;0.40;;
67100;SDS011;54019;61.746;16.106;2022-09-01T14:09:22;4.25;;;0.40;;
67100;SDS011;54019;61.746;16.106;2022-09-01T14:11:50;3.88;;;0.35;;
67100;SDS011;54019;61.746;16.106;2022-09-01T14:14:17;2.60;;;0.40;;
67100;SDS011;54019;61.746;16.106;2022-09-01T14:16:44;1.98;;;0.35;;
67100;SDS011;54019;61.746;16.106;2022-09-01T14:19:10;3.65;;;0.30;;
67100;SDS011;54019;61.746;16.106;2022-09-01T14:21:35;1.58;;;0.22;;
67100;SDS011;54019;61.746;16.106;2022-09-01T14:24:02;1.70;;;0.25;;
67100;SDS011;54019;61.746;16.106;2022-09-01T14:26:28;5.53;;;2.40;;
67100;SDS011;54019;61.746;16.106;2022-09-01T14:28:55;6.22;;;2.22;;
67100;SDS011;54019;61.746;16.106;2022-09-01T14:31:21;9.25;;;3.50;;
67100;SDS011;54019;61.746;16.106;2022-09-01T14:33:47;25.13;;;12.70;;
67100;SDS011;54019;61.746;16.106;2022-09-01T14:36:17;3.90;;;2.00;;
67100;SDS011;54019;61.746;16.106;2022-09-01T14:38:45;4.60;;;2.07;;
67100;SDS011;54019;61.746;16.106;2022-09-01T14:41:12;5.85;;;2.28;;
67100;SDS011;54019;61.746;16.106;2022-09-01T14:43:38;8.63;;;3.10;;
67100;SDS011;54019;61.746;16.106;2022-09-01T14:46:06;11.65;;;2.60;;
67100;SDS011;54019;61.746;16.106;2022-09-01T14:48:33;5.82;;;2.72;;
67100;SDS011;54019;61.746;16.106;2022-09-01T14:50:58;8.80;;;2.40;;
67100;SDS011;54019;61.746;16.106;2022-09-01T14:53:25;9.48;;;2.70;;
67100;SDS011;54019;61.746;16.106;2022-09-01T14:55:53;6.15;;;2.15;;
67100;SDS011;54019;61.746;16.106;2022-09-01T14:58:19;6.38;;;1.90;;
67100;SDS011;54019;61.746;16.106;2022-09-01T15:00:45;6.55;;;1.90;;
67100;SDS011;54019;61.746;16.106;2022-09-01T15:03:13;10.98;;;1.50;;
67100;SDS011;54019;61.746;16.106;2022-09-01T15:05:38;6.25;;;1.52;;